Rockbridge, Illinois
Current Conditions -  °F | °C
As of 12:54 PM on Friday 24 Oct 2014 (Local Time) from KSET Reporting Station
Haze Haze  
Wind Chill: 68°   Ceiling: Unl
Heat Index: 68°   Visibility: 5mi
Dew Point: 53°   Wind: 5mph
Humidity: 59%   Direction: 270°W
Pressure: 30.08"   Gusts: NA
Location:  39.27°N, 90.2°W
Report Text: KSET 241754Z AUTO 27004KT 5SM HZ CLR 20/12 A3008 RMK AO2 SLP184 T02000117 10200 20106 58013
Loading
Personal Weather Stations






























Interactive Weather Map
Tropical Storm Tracking
New forecast layout! Learn more

10-Day Weather Forecast

Advertisements
Track Severe Weather on mobile